Time;durP1;ratioP1;P1;durP2;ratioP2;P2;SDS_P1;SDS_P2;PMS_P1;PMS_P2;Temp;Humidity;BMP_temperature;BMP_pressure;BME280_temperature;BME280_humidity;BME280_pressure;Samples;Min_cycle;Max_cycle;Signal;HPM_P1;HPM_P2
2022/06/29 00:02:38;;;;;;;2.80;1.38;;;;;;;;;;6258726;28;20045;-72
2022/06/29 00:05:40;;;;;;;5.32;1.70;;;;;;;;;;6260929;28;20136;-72
2022/06/29 00:08:41;;;;;;;3.60;1.52;;;;;;;;;;6259536;28;20047;-72
2022/06/29 00:11:43;;;;;;;5.88;1.75;;;;;;;;;;6253682;28;20045;-72
2022/06/29 00:14:45;;;;;;;3.17;1.30;;;;;;;;;;6254285;28;20049;-72
2022/06/29 00:17:48;;;;;;;5.15;1.35;;;;;;;;;;6263491;28;20073;-72
2022/06/29 00:20:50;;;;;;;5.28;1.80;;;;;;;;;;6251881;28;20053;-72
2022/06/29 00:23:52;;;;;;;5.13;1.50;;;;;;;;;;6263669;28;20344;-72
2022/06/29 00:26:54;;;;;;;3.20;1.45;;;;;;;;;;6260724;28;20166;-72
2022/06/29 00:29:56;;;;;;;5.88;1.60;;;;;;;;;;6256993;28;20057;-72
2022/06/29 00:32:58;;;;;;;3.28;1.58;;;;;;;;;;6262857;28;20209;-72
2022/06/29 00:36:00;;;;;;;5.10;1.60;;;;;;;;;;6259721;28;20057;-72
2022/06/29 00:39:02;;;;;;;3.58;1.67;;;;;;;;;;6252333;28;20052;-71
2022/06/29 00:42:04;;;;;;;6.45;1.60;;;;;;;;;;6257081;28;20359;-72
2022/06/29 00:45:08;;;;;;;6.30;1.98;;;;;;;;;;6257272;28;20396;-72
2022/06/29 00:48:11;;;;;;;5.07;1.80;;;;;;;;;;6253199;28;20041;-72
2022/06/29 00:51:13;;;;;;;8.60;2.58;;;;;;;;;;6262390;28;20045;-72
2022/06/29 00:54:18;;;;;;;6.80;2.13;;;;;;;;;;6257969;28;20116;-72
2022/06/29 00:57:21;;;;;;;3.13;1.77;;;;;;;;;;6258127;28;20205;-72
2022/06/29 01:00:23;;;;;;;6.53;2.28;;;;;;;;;;6254568;28;20045;-71
2022/06/29 01:03:26;;;;;;;2.92;1.55;;;;;;;;;;6257145;28;20108;-72
2022/06/29 01:06:28;;;;;;;6.88;2.00;;;;;;;;;;6255823;28;20118;-71
2022/06/29 01:09:30;;;;;;;5.15;1.67;;;;;;;;;;6255335;28;20049;-72
2022/06/29 01:12:32;;;;;;;3.63;1.60;;;;;;;;;;6260682;28;20054;-72
2022/06/29 01:15:33;;;;;;;4.70;1.60;;;;;;;;;;6254309;28;20044;-71
2022/06/29 01:18:36;;;;;;;4.22;1.85;;;;;;;;;;6254746;28;20046;-71
2022/06/29 01:21:42;;;;;;;5.53;1.60;;;;;;;;;;6261289;28;20264;-71
2022/06/29 01:24:45;;;;;;;3.67;1.33;;;;;;;;;;6256879;28;20053;-71
2022/06/29 01:27:47;;;;;;;6.82;2.10;;;;;;;;;;6255149;28;20059;-72
2022/06/29 01:30:49;;;;;;;3.13;1.60;;;;;;;;;;6260578;28;20053;-72
2022/06/29 01:33:50;;;;;;;6.32;2.00;;;;;;;;;;6256873;28;20045;-72
2022/06/29 01:36:53;;;;;;;6.22;2.20;;;;;;;;;;6260205;28;20229;-72
2022/06/29 01:39:56;;;;;;;2.95;1.40;;;;;;;;;;6251705;28;20061;-72
2022/06/29 01:42:57;;;;;;;4.45;1.55;;;;;;;;;;6257664;28;20052;-72
2022/06/29 01:45:59;;;;;;;5.65;1.88;;;;;;;;;;6252344;28;20053;-73
2022/06/29 01:49:01;;;;;;;4.10;1.90;;;;;;;;;;6256218;28;20059;-72
2022/06/29 01:52:03;;;;;;;4.38;1.45;;;;;;;;;;6261861;28;20055;-71
2022/06/29 01:55:07;;;;;;;5.63;1.58;;;;;;;;;;6263229;28;20053;-71
2022/06/29 01:58:08;;;;;;;3.78;1.42;;;;;;;;;;6253364;28;20150;-73
2022/06/29 02:01:10;;;;;;;5.97;1.73;;;;;;;;;;6253804;28;20053;-72
2022/06/29 02:04:12;;;;;;;3.95;1.73;;;;;;;;;;6259401;28;20046;-72
2022/06/29 02:07:14;;;;;;;3.35;1.40;;;;;;;;;;6255944;28;20095;-72
2022/06/29 02:10:17;;;;;;;3.78;1.50;;;;;;;;;;6252545;28;20272;-72
2022/06/29 02:13:19;;;;;;;5.95;1.75;;;;;;;;;;6263029;28;20351;-71
2022/06/29 02:16:20;;;;;;;9.18;2.05;;;;;;;;;;6256552;28;20045;-72
2022/06/29 02:19:22;;;;;;;5.93;1.60;;;;;;;;;;6255352;28;20049;-72
2022/06/29 02:22:24;;;;;;;3.92;2.08;;;;;;;;;;6257690;28;20320;-72
2022/06/29 02:25:27;;;;;;;5.07;1.50;;;;;;;;;;6254405;28;20057;-72
2022/06/29 02:28:29;;;;;;;8.43;1.85;;;;;;;;;;6253617;28;20054;-72
2022/06/29 02:34:49;;;;;;;5.90;1.52;;;;;;;;;;6256467;28;20117;-72
2022/06/29 02:37:51;;;;;;;4.80;1.88;;;;;;;;;;6260374;28;20056;-72
2022/06/29 02:40:54;;;;;;;4.93;1.73;;;;;;;;;;6254053;28;20057;-72
2022/06/29 02:43:56;;;;;;;6.90;1.85;;;;;;;;;;6258469;28;20072;-72
2022/06/29 02:46:57;;;;;;;4.47;1.73;;;;;;;;;;6254351;28;20120;-72
2022/06/29 02:49:59;;;;;;;4.82;1.63;;;;;;;;;;6254637;28;20049;-72
2022/06/29 02:53:01;;;;;;;3.10;1.67;;;;;;;;;;6253572;28;20049;-72
2022/06/29 02:56:05;;;;;;;3.75;1.48;;;;;;;;;;6256073;28;20107;-72
2022/06/29 02:59:06;;;;;;;3.22;1.58;;;;;;;;;;6254850;28;20407;-72
2022/06/29 03:02:08;;;;;;;7.10;2.00;;;;;;;;;;6254734;28;20100;-73
2022/06/29 03:05:10;;;;;;;4.95;2.05;;;;;;;;;;6257021;28;20109;-72
2022/06/29 03:08:12;;;;;;;4.53;1.90;;;;;;;;;;6255820;28;20099;-72
2022/06/29 03:11:15;;;;;;;5.80;2.10;;;;;;;;;;6255769;28;20368;-72
2022/06/29 03:14:16;;;;;;;5.40;1.77;;;;;;;;;;6264289;28;20058;-72
2022/06/29 03:17:18;;;;;;;4.40;1.98;;;;;;;;;;6264467;28;20053;-72
2022/06/29 03:20:20;;;;;;;5.60;2.30;;;;;;;;;;6260312;28;20063;-72
2022/06/29 03:23:21;;;;;;;6.20;2.05;;;;;;;;;;6263036;28;20040;-72
2022/06/29 03:26:24;;;;;;;5.30;1.98;;;;;;;;;;6262842;28;20045;-72
2022/06/29 03:29:26;;;;;;;5.88;2.33;;;;;;;;;;6258159;28;20042;-72
2022/06/29 03:32:28;;;;;;;4.82;2.20;;;;;;;;;;6255808;28;20057;-72
2022/06/29 03:35:30;;;;;;;7.05;1.80;;;;;;;;;;6264818;28;20073;-72
2022/06/29 03:38:31;;;;;;;6.55;2.28;;;;;;;;;;6259704;28;20053;-72
2022/06/29 03:41:34;;;;;;;4.97;2.30;;;;;;;;;;6266335;28;20041;-73
2022/06/29 03:44:36;;;;;;;3.47;1.85;;;;;;;;;;6254887;28;20046;-72
2022/06/29 03:47:38;;;;;;;5.30;1.98;;;;;;;;;;6261972;28;20061;-72
2022/06/29 03:50:40;;;;;;;6.30;2.43;;;;;;;;;;6260520;28;20053;-72
2022/06/29 03:53:42;;;;;;;4.55;2.05;;;;;;;;;;6258164;28;20053;-72
2022/06/29 03:56:45;;;;;;;4.32;2.22;;;;;;;;;;6256411;28;20053;-72
2022/06/29 03:59:46;;;;;;;7.70;2.30;;;;;;;;;;6267079;28;20063;-72
2022/06/29 04:02:48;;;;;;;7.35;2.72;;;;;;;;;;6255691;28;20099;-73
2022/06/29 04:05:50;;;;;;;4.88;2.30;;;;;;;;;;6260149;28;20052;-73
2022/06/29 04:08:51;;;;;;;6.05;2.25;;;;;;;;;;6257802;28;20091;-72
2022/06/29 04:11:55;;;;;;;5.03;2.33;;;;;;;;;;6262933;28;20053;-72
2022/06/29 04:14:58;;;;;;;7.20;2.25;;;;;;;;;;6254915;28;20125;-72
2022/06/29 04:17:59;;;;;;;5.38;3.08;;;;;;;;;;6263863;28;20332;-73
2022/06/29 04:21:07;;;;;;;6.07;2.47;;;;;;;;;;6257754;28;20053;-72
2022/06/29 04:24:09;;;;;;;6.65;2.88;;;;;;;;;;6260501;28;20128;-73
2022/06/29 04:27:12;;;;;;;8.88;2.53;;;;;;;;;;6255901;28;20324;-72
2022/06/29 04:30:13;;;;;;;3.95;2.38;;;;;;;;;;6255215;28;20041;-72
2022/06/29 04:33:15;;;;;;;9.25;2.17;;;;;;;;;;6258927;28;20052;-72
2022/06/29 04:36:17;;;;;;;11.20;2.47;;;;;;;;;;6260973;28;20042;-73
2022/06/29 04:39:19;;;;;;;6.03;2.70;;;;;;;;;;6261497;28;20985;-72
2022/06/29 04:42:22;;;;;;;4.80;2.63;;;;;;;;;;6255759;28;20069;-73
2022/06/29 04:48:43;;;;;;;5.45;2.60;;;;;;;;;;6258958;28;20049;-72
2022/06/29 04:51:45;;;;;;;4.75;2.38;;;;;;;;;;6256136;28;20062;-72
2022/06/29 04:54:46;;;;;;;5.72;2.67;;;;;;;;;;6258111;28;20041;-72
2022/06/29 04:57:49;;;;;;;6.57;2.60;;;;;;;;;;6256114;28;20129;-72
2022/06/29 05:00:51;;;;;;;5.07;3.22;;;;;;;;;;6258889;28;20061;-72
2022/06/29 05:03:54;;;;;;;4.30;2.40;;;;;;;;;;6261421;28;20053;-72
2022/06/29 05:06:55;;;;;;;6.40;2.92;;;;;;;;;;6255283;28;20111;-73
2022/06/29 05:09:57;;;;;;;5.88;2.75;;;;;;;;;;6262628;28;20059;-72
2022/06/29 05:13:01;;;;;;;4.90;2.75;;;;;;;;;;6261509;28;20057;-72
2022/06/29 05:16:02;;;;;;;5.75;3.25;;;;;;;;;;6258705;28;20052;-72
2022/06/29 05:19:04;;;;;;;7.07;3.38;;;;;;;;;;6254493;28;20107;-72
2022/06/29 05:22:06;;;;;;;8.43;2.65;;;;;;;;;;6260321;28;20064;-72
2022/06/29 05:25:08;;;;;;;6.93;2.95;;;;;;;;;;6256380;28;20060;-72
2022/06/29 05:28:11;;;;;;;8.27;2.90;;;;;;;;;;6257002;28;20060;-72
2022/06/29 05:31:13;;;;;;;6.70;2.58;;;;;;;;;;6258881;28;20095;-72
2022/06/29 05:34:14;;;;;;;5.90;2.63;;;;;;;;;;6259272;28;20132;-72
2022/06/29 05:37:16;;;;;;;9.95;2.70;;;;;;;;;;6256080;28;20110;-72
2022/06/29 05:40:18;;;;;;;6.32;2.55;;;;;;;;;;6259391;28;20081;-72
2022/06/29 05:43:21;;;;;;;6.20;2.50;;;;;;;;;;6256710;28;20060;-72
2022/06/29 05:46:23;;;;;;;5.55;2.60;;;;;;;;;;6259205;28;20402;-72
2022/06/29 05:49:25;;;;;;;6.90;2.80;;;;;;;;;;6256912;28;20045;-72
2022/06/29 05:52:26;;;;;;;5.07;2.95;;;;;;;;;;6256514;28;20041;-72
2022/06/29 05:55:28;;;;;;;10.15;2.83;;;;;;;;;;6254866;28;20099;-72
2022/06/29 05:58:31;;;;;;;12.52;2.97;;;;;;;;;;6260894;28;20056;-72
2022/06/29 06:01:33;;;;;;;6.93;2.55;;;;;;;;;;6255867;28;20076;-71
2022/06/29 06:04:34;;;;;;;8.95;2.35;;;;;;;;;;6254958;28;20045;-72
2022/06/29 06:07:36;;;;;;;5.05;2.53;;;;;;;;;;6257440;28;20041;-72
2022/06/29 06:10:38;;;;;;;6.43;3.00;;;;;;;;;;6257598;28;20075;-72
2022/06/29 06:13:41;;;;;;;8.35;3.00;;;;;;;;;;6251257;28;20096;-72
2022/06/29 06:16:43;;;;;;;7.75;2.90;;;;;;;;;;6257482;28;20045;-74
2022/06/29 06:19:45;;;;;;;7.78;3.53;;;;;;;;;;6259630;28;20068;-75
2022/06/29 06:22:46;;;;;;;10.07;3.20;;;;;;;;;;6255106;28;20065;-73
2022/06/29 06:25:48;;;;;;;6.50;2.92;;;;;;;;;;6254469;28;20418;-74
2022/06/29 06:28:52;;;;;;;12.95;5.93;;;;;;;;;;6256611;28;20209;-74
2022/06/29 06:31:53;;;;;;;38.00;24.60;;;;;;;;;;6259120;28;20076;-74
2022/06/29 06:34:55;;;;;;;8.15;3.65;;;;;;;;;;6258150;28;20107;-74
2022/06/29 06:37:57;;;;;;;9.43;4.32;;;;;;;;;;6257611;28;20065;-73
2022/06/29 06:44:19;;;;;;;7.55;3.47;;;;;;;;;;6253657;28;20047;-73
2022/06/29 06:47:20;;;;;;;7.07;3.20;;;;;;;;;;6257917;28;20116;-74
2022/06/29 06:50:23;;;;;;;9.20;3.10;;;;;;;;;;6261622;28;20616;-73
2022/06/29 06:53:26;;;;;;;9.40;3.20;;;;;;;;;;6267149;28;20104;-73
2022/06/29 06:56:28;;;;;;;8.02;3.35;;;;;;;;;;6257181;28;20052;-73
2022/06/29 06:59:31;;;;;;;9.40;3.85;;;;;;;;;;6262105;28;20068;-73
2022/06/29 07:02:32;;;;;;;9.80;3.75;;;;;;;;;;6258383;28;20054;-72
2022/06/29 07:05:34;;;;;;;8.45;3.80;;;;;;;;;;6262856;28;20041;-72
2022/06/29 07:08:38;;;;;;;5.65;3.15;;;;;;;;;;6259380;28;20324;-72
2022/06/29 07:11:39;;;;;;;8.82;3.95;;;;;;;;;;6260240;28;20271;-72
2022/06/29 07:14:42;;;;;;;8.63;3.42;;;;;;;;;;6262704;28;20352;-73
2022/06/29 07:17:44;;;;;;;9.13;4.10;;;;;;;;;;6259204;28;20095;-73
2022/06/29 07:20:46;;;;;;;9.65;3.28;;;;;;;;;;6263315;28;20604;-73
2022/06/29 07:23:48;;;;;;;6.95;3.70;;;;;;;;;;6260940;28;20052;-73
2022/06/29 07:26:50;;;;;;;8.18;3.35;;;;;;;;;;6258230;28;20057;-73
2022/06/29 07:29:53;;;;;;;5.68;2.60;;;;;;;;;;6262909;28;20084;-73
2022/06/29 07:32:55;;;;;;;11.38;2.83;;;;;;;;;;6262149;28;20112;-73
2022/06/29 07:35:56;;;;;;;8.80;3.05;;;;;;;;;;6261068;28;20057;-72
2022/06/29 07:38:58;;;;;;;7.22;2.58;;;;;;;;;;6258233;28;20061;-72
2022/06/29 07:42:00;;;;;;;5.32;2.10;;;;;;;;;;6259860;28;20340;-73
2022/06/29 07:45:03;;;;;;;5.15;2.00;;;;;;;;;;6261407;28;20042;-72
2022/06/29 07:48:05;;;;;;;;;;;;;;;;;;6252902;28;20060;-72
2022/06/29 07:51:06;;;;;;;8.13;2.10;;;;;;;;;;6260433;28;19932;-72
2022/06/29 07:54:08;;;;;;;7.50;2.20;;;;;;;;;;6262288;28;20075;-73
2022/06/29 07:57:10;;;;;;;8.32;1.95;;;;;;;;;;6257397;28;20064;-72
2022/06/29 08:00:14;;;;;;;7.13;2.20;;;;;;;;;;6261988;28;20050;-72
2022/06/29 08:03:16;;;;;;;7.65;2.05;;;;;;;;;;6258292;28;20052;-72
2022/06/29 08:06:17;;;;;;;4.85;2.28;;;;;;;;;;6259913;28;20057;-71
2022/06/29 08:09:19;;;;;;;9.20;2.42;;;;;;;;;;6259555;28;20060;-72
2022/06/29 08:12:21;;;;;;;5.05;2.25;;;;;;;;;;6259704;28;20041;-72
2022/06/29 08:15:24;;;;;;;5.72;2.15;;;;;;;;;;6260222;28;20114;-72
2022/06/29 08:18:26;;;;;;;6.85;2.35;;;;;;;;;;6260048;28;20061;-71
2022/06/29 08:21:27;;;;;;;9.10;2.20;;;;;;;;;;6262341;28;20049;-73
2022/06/29 08:24:29;;;;;;;8.60;2.35;;;;;;;;;;6255428;28;20403;-72
2022/06/29 08:27:33;;;;;;;8.55;2.80;;;;;;;;;;6257190;28;20328;-71
2022/06/29 08:30:36;;;;;;;7.30;1.90;;;;;;;;;;6260605;28;20102;-74
2022/06/29 08:33:37;;;;;;;6.20;2.17;;;;;;;;;;6261656;28;20099;-75
2022/06/29 08:36:39;;;;;;;3.40;1.95;;;;;;;;;;6264940;28;20044;-73
2022/06/29 08:39:41;;;;;;;9.60;2.28;;;;;;;;;;6257850;28;20049;-73
2022/06/29 08:42:43;;;;;;;16.05;9.98;;;;;;;;;;6259665;28;20060;-75
2022/06/29 08:45:47;;;;;;;25.85;12.75;;;;;;;;;;6258659;28;20061;-73
2022/06/29 08:48:49;;;;;;;8.10;3.60;;;;;;;;;;6261080;28;20059;-74
2022/06/29 08:51:51;;;;;;;52.65;28.92;;;;;;;;;;6240408;28;20057;-75
2022/06/29 08:54:54;;;;;;;95.03;53.13;;;;;;;;;;6257643;28;20323;-76
2022/06/29 08:57:56;;;;;;;;;;;;;;;;;;6263006;28;20320;-74
2022/06/29 09:00:59;;;;;;;12.57;6.60;;;;;;;;;;6239277;28;20254;-74
2022/06/29 09:04:00;;;;;;;42.00;25.02;;;;;;;;;;6253862;28;20073;-74
2022/06/29 09:07:02;;;;;;;9.95;6.10;;;;;;;;;;6255703;28;20048;-73
2022/06/29 09:10:07;;;;;;;6.28;1.92;;;;;;;;;;6254456;28;20060;-73
2022/06/29 09:13:09;;;;;;;7.43;2.58;;;;;;;;;;6250583;28;20049;-74
2022/06/29 09:16:12;;;;;;;4.00;1.85;;;;;;;;;;6255598;28;20131;-75
2022/06/29 09:19:14;;;;;;;11.02;2.67;;;;;;;;;;6252463;28;20041;-74
2022/06/29 09:22:16;;;;;;;7.25;2.13;;;;;;;;;;6252596;28;20045;-75
2022/06/29 09:25:24;;;;;;;4.28;1.83;;;;;;;;;;6249744;28;20052;-73
2022/06/29 09:28:27;;;;;;;5.28;2.30;;;;;;;;;;6255649;28;20715;-70
2022/06/29 09:31:30;;;;;;;4.47;1.80;;;;;;;;;;6256800;28;20047;-73
2022/06/29 09:34:32;;;;;;;5.40;2.15;;;;;;;;;;6259288;28;20046;-73
2022/06/29 09:37:33;;;;;;;8.38;2.15;;;;;;;;;;6253225;28;20059;-74
2022/06/29 09:40:35;;;;;;;3.77;1.90;;;;;;;;;;6256196;28;20052;-74
2022/06/29 09:43:39;;;;;;;7.37;2.07;;;;;;;;;;6257927;28;20041;-73
2022/06/29 09:46:42;;;;;;;5.55;1.92;;;;;;;;;;6250853;28;20052;-75
2022/06/29 09:49:45;;;;;;;6.32;1.77;;;;;;;;;;6252874;28;20320;-74
2022/06/29 09:52:49;;;;;;;8.73;2.10;;;;;;;;;;6251358;28;20041;-72
2022/06/29 09:55:54;;;;;;;5.93;1.83;;;;;;;;;;6248375;28;20054;-75
2022/06/29 09:58:58;;;;;;;6.32;2.17;;;;;;;;;;6256849;28;20041;-75
2022/06/29 10:05:21;;;;;;;7.93;2.15;;;;;;;;;;6250016;28;20045;-75
2022/06/29 10:08:23;;;;;;;7.72;2.47;;;;;;;;;;6228841;28;20099;-73
2022/06/29 10:15:01;;;;;;;6.30;2.00;;;;;;;;;;6230640;28;20045;-76
2022/06/29 10:18:15;;;;;;;6.10;2.08;;;;;;;;;;6231712;28;20120;-75
2022/06/29 10:21:19;;;;;;;8.15;2.47;;;;;;;;;;6246512;28;20057;-75
2022/06/29 10:24:21;;;;;;;5.63;2.17;;;;;;;;;;6251900;28;20056;-76
2022/06/29 10:27:23;;;;;;;7.88;2.30;;;;;;;;;;6261631;28;20044;-76
2022/06/29 10:30:25;;;;;;;8.73;2.22;;;;;;;;;;6263397;28;20383;-76
2022/06/29 10:33:37;;;;;;;8.63;3.13;;;;;;;;;;6257444;28;20053;-76
2022/06/29 10:37:00;;;;;;;6.28;2.13;;;;;;;;;;6257812;28;20053;-76
2022/06/29 10:40:05;;;;;;;6.22;2.05;;;;;;;;;;6262601;28;20049;-75
2022/06/29 10:43:20;;;;;;;8.23;2.42;;;;;;;;;;6260698;28;20075;-75
2022/06/29 10:46:22;;;;;;;8.32;2.40;;;;;;;;;;6261783;28;20052;-76
2022/06/29 10:49:26;;;;;;;8.77;2.08;;;;;;;;;;6260427;28;20072;-76
2022/06/29 10:52:27;;;;;;;6.32;2.08;;;;;;;;;;6257176;28;20050;-76
2022/06/29 10:55:29;;;;;;;7.80;2.10;;;;;;;;;;6261020;28;20103;-76
2022/06/29 10:58:33;;;;;;;;;;;;;;;;;;6256763;28;20053;-75
2022/06/29 11:01:35;;;;;;;7.10;2.47;;;;;;;;;;6258989;28;19933;-76
2022/06/29 11:04:38;;;;;;;6.07;2.10;;;;;;;;;;6257976;28;20269;-76
2022/06/29 11:17:47;;;;;;;5.88;2.63;;;;;;;;;;6257937;28;20045;-75
2022/06/29 11:20:51;;;;;;;6.30;3.00;;;;;;;;;;6258198;28;20061;-75
2022/06/29 11:23:57;;;;;;;6.20;2.55;;;;;;;;;;6260150;28;20057;-76
2022/06/29 11:26:59;;;;;;;6.78;2.70;;;;;;;;;;6255332;28;20283;-76
2022/06/29 11:30:00;;;;;;;6.65;2.80;;;;;;;;;;6257884;28;20072;-74
2022/06/29 11:33:10;;;;;;;9.25;2.65;;;;;;;;;;6239820;28;20111;-74
2022/06/29 11:36:16;;;;;;;8.38;2.58;;;;;;;;;;6240486;28;20081;-74
2022/06/29 11:39:17;;;;;;;8.07;2.35;;;;;;;;;;6261539;28;20052;-73
2022/06/29 11:45:43;;;;;;;44.75;26.55;;;;;;;;;;6250303;28;20050;-73
2022/06/29 11:52:08;;;;;;;8.57;2.75;;;;;;;;;;6248824;28;20380;-75
2022/06/29 11:55:10;;;;;;;5.97;2.60;;;;;;;;;;6258946;28;20066;-75
2022/06/29 11:58:12;;;;;;;8.00;2.90;;;;;;;;;;6258923;28;20053;-75
2022/06/29 12:01:16;;;;;;;7.03;2.75;;;;;;;;;;6260030;28;20045;-75
2022/06/29 12:04:26;;;;;;;6.68;2.78;;;;;;;;;;6259440;28;20053;-75
2022/06/29 12:07:30;;;;;;;7.80;2.05;;;;;;;;;;6263841;28;20045;-74
2022/06/29 12:10:32;;;;;;;7.70;2.80;;;;;;;;;;6255589;28;20042;-76
2022/06/29 12:13:34;;;;;;;;;;;;;;;;;;6259699;28;20045;-75
2022/06/29 12:16:35;;;;;;;8.40;2.78;;;;;;;;;;6252175;28;19929;-74
2022/06/29 12:19:38;;;;;;;9.52;2.85;;;;;;;;;;6254260;28;20540;-72
2022/06/29 12:22:41;;;;;;;10.98;2.28;;;;;;;;;;6257238;28;20049;-73
2022/06/29 12:25:43;;;;;;;9.68;2.20;;;;;;;;;;6256060;28;20279;-72
2022/06/29 12:28:44;;;;;;;5.50;2.22;;;;;;;;;;6258375;28;20057;-72
2022/06/29 12:31:46;;;;;;;7.60;2.53;;;;;;;;;;6257760;28;21124;-73
2022/06/29 12:34:48;;;;;;;8.88;2.45;;;;;;;;;;6259212;28;20052;-73
2022/06/29 12:37:53;;;;;;;7.68;2.10;;;;;;;;;;6263101;28;20253;-73
2022/06/29 12:40:56;;;;;;;7.40;2.00;;;;;;;;;;6257524;28;20049;-71
2022/06/29 12:43:57;;;;;;;4.95;1.95;;;;;;;;;;6256807;28;20062;-73
2022/06/29 12:46:59;;;;;;;7.05;2.47;;;;;;;;;;6254007;28;20061;-69
2022/06/29 12:50:01;;;;;;;9.57;2.42;;;;;;;;;;6258833;28;20056;-71
2022/06/29 12:53:06;;;;;;;6.15;1.65;;;;;;;;;;6258367;28;20073;-70
2022/06/29 12:56:07;;;;;;;8.43;1.77;;;;;;;;;;6253417;28;20055;-72
2022/06/29 12:59:09;;;;;;;5.53;2.25;;;;;;;;;;6258819;28;20107;-71
2022/06/29 13:02:12;;;;;;;8.32;1.58;;;;;;;;;;6256803;28;20344;-70
2022/06/29 13:05:13;;;;;;;5.15;1.50;;;;;;;;;;6253194;28;20047;-73
2022/06/29 13:08:17;;;;;;;10.55;2.38;;;;;;;;;;6251420;28;20060;-72
2022/06/29 13:11:18;;;;;;;7.30;2.03;;;;;;;;;;6257836;28;20073;-70
2022/06/29 13:14:20;;;;;;;5.22;1.80;;;;;;;;;;6261292;28;20045;-71
2022/06/29 13:17:22;;;;;;;7.07;2.17;;;;;;;;;;6254783;28;20394;-71
2022/06/29 13:20:23;;;;;;;5.75;1.85;;;;;;;;;;6260934;28;20240;-70
2022/06/29 13:23:27;;;;;;;5.45;1.80;;;;;;;;;;6264028;28;20049;-70
2022/06/29 13:26:28;;;;;;;7.28;1.90;;;;;;;;;;6260197;28;20049;-70
2022/06/29 13:29:30;;;;;;;8.00;1.98;;;;;;;;;;6245173;28;20049;-72
2022/06/29 13:32:32;;;;;;;9.40;2.03;;;;;;;;;;6258028;28;20069;-70
2022/06/29 13:35:34;;;;;;;4.15;1.77;;;;;;;;;;6258225;28;20057;-72
2022/06/29 13:38:37;;;;;;;5.50;2.38;;;;;;;;;;6252135;28;20574;-70
2022/06/29 13:41:38;;;;;;;5.82;2.20;;;;;;;;;;6253704;28;20244;-72
2022/06/29 13:44:40;;;;;;;5.70;1.85;;;;;;;;;;6256861;28;20261;-73
2022/06/29 13:47:41;;;;;;;7.00;2.42;;;;;;;;;;6254481;28;20078;-70
2022/06/29 13:50:44;;;;;;;9.20;2.10;;;;;;;;;;6257962;28;20065;-72
2022/06/29 13:53:47;;;;;;;5.30;2.33;;;;;;;;;;6258730;28;20382;-71
2022/06/29 13:56:48;;;;;;;9.23;1.98;;;;;;;;;;6249274;28;20049;-73
2022/06/29 13:59:50;;;;;;;6.03;2.08;;;;;;;;;;6256304;28;20057;-71
2022/06/29 14:02:51;;;;;;;10.20;1.70;;;;;;;;;;6257950;28;20057;-71
2022/06/29 14:05:53;;;;;;;6.93;1.90;;;;;;;;;;6263574;28;20065;-72
2022/06/29 14:08:56;;;;;;;;;;;;;;;;;;6259997;28;20356;-72
2022/06/29 14:11:58;;;;;;;6.90;2.35;;;;;;;;;;6257875;28;19917;-71
2022/06/29 14:14:59;;;;;;;10.23;2.45;;;;;;;;;;6260354;28;20341;-71
2022/06/29 14:18:01;;;;;;;5.78;2.00;;;;;;;;;;6258430;28;20252;-71
2022/06/29 14:21:02;;;;;;;6.68;1.73;;;;;;;;;;6258928;28;20119;-71
2022/06/29 14:24:06;;;;;;;11.40;2.55;;;;;;;;;;6255402;28;20091;-71
2022/06/29 14:27:08;;;;;;;5.45;1.80;;;;;;;;;;6257804;28;20058;-72
2022/06/29 14:30:11;;;;;;;3.83;1.88;;;;;;;;;;6260136;28;20045;-72
2022/06/29 14:33:13;;;;;;;6.57;2.25;;;;;;;;;;6253643;28;20121;-72
2022/06/29 14:36:15;;;;;;;8.35;2.15;;;;;;;;;;6255990;28;20385;-71
2022/06/29 14:39:18;;;;;;;9.20;2.37;;;;;;;;;;6259574;28;20349;-71
2022/06/29 14:42:20;;;;;;;7.43;2.20;;;;;;;;;;6258116;28;20513;-71
2022/06/29 14:45:21;;;;;;;10.75;2.10;;;;;;;;;;6255862;28;20056;-72
2022/06/29 14:48:23;;;;;;;5.90;2.00;;;;;;;;;;6255958;28;20150;-71
2022/06/29 14:51:24;;;;;;;9.02;1.80;;;;;;;;;;6258043;28;20096;-71
2022/06/29 14:54:27;;;;;;;6.10;1.90;;;;;;;;;;6260469;28;20056;-71
2022/06/29 14:57:29;;;;;;;4.38;1.60;;;;;;;;;;6257442;28;20053;-71
2022/06/29 15:00:31;;;;;;;10.32;2.47;;;;;;;;;;6258007;28;20045;-71
2022/06/29 15:03:33;;;;;;;6.77;1.63;;;;;;;;;;6257108;28;20210;-71
2022/06/29 15:06:34;;;;;;;8.07;2.17;;;;;;;;;;6253189;28;20387;-71
2022/06/29 15:09:37;;;;;;;8.80;1.90;;;;;;;;;;6264780;28;20054;-71
2022/06/29 15:12:39;;;;;;;5.25;1.73;;;;;;;;;;6255689;28;20336;-72
2022/06/29 15:15:46;;;;;;;10.27;3.57;;;;;;;;;;6253791;28;20050;-71
2022/06/29 15:18:48;;;;;;;4.70;1.77;;;;;;;;;;6261953;28;20059;-71
2022/06/29 15:21:49;;;;;;;6.15;1.83;;;;;;;;;;6261093;28;20053;-72
2022/06/29 15:24:52;;;;;;;6.23;1.63;;;;;;;;;;6255394;28;20061;-70
2022/06/29 15:27:54;;;;;;;7.90;1.77;;;;;;;;;;6255519;28;20052;-72
2022/06/29 15:30:55;;;;;;;8.70;2.10;;;;;;;;;;6261861;28;20104;-71
2022/06/29 15:40:36;;;;;;;5.57;1.67;;;;;;;;;;6262916;28;20280;-71
2022/06/29 15:43:38;;;;;;;6.68;2.05;;;;;;;;;;6260688;28;20115;-72
2022/06/29 15:46:40;;;;;;;8.82;2.10;;;;;;;;;;6255657;28;20771;-72
2022/06/29 15:49:41;;;;;;;8.60;1.85;;;;;;;;;;6261081;28;20044;-71
2022/06/29 15:52:43;;;;;;;7.95;1.90;;;;;;;;;;6256182;28;20053;-72
2022/06/29 15:55:45;;;;;;;4.18;1.80;;;;;;;;;;6256006;28;20320;-71
2022/06/29 15:58:46;;;;;;;7.45;1.85;;;;;;;;;;6258476;28;20051;-72
2022/06/29 16:01:48;;;;;;;6.63;1.60;;;;;;;;;;6249201;28;20274;-72
2022/06/29 16:04:52;;;;;;;7.40;2.27;;;;;;;;;;6249094;28;20053;-71
2022/06/29 16:07:54;;;;;;;7.40;2.10;;;;;;;;;;6252585;28;20057;-73
2022/06/29 16:10:57;;;;;;;10.95;2.00;;;;;;;;;;6247379;28;20041;-71
2022/06/29 16:13:59;;;;;;;6.35;1.52;;;;;;;;;;6249056;28;20060;-73
2022/06/29 16:17:01;;;;;;;7.05;1.88;;;;;;;;;;6250707;28;20280;-73
2022/06/29 16:20:03;;;;;;;6.22;2.42;;;;;;;;;;6253085;28;20053;-73
2022/06/29 16:23:04;;;;;;;10.90;2.53;;;;;;;;;;6248406;28;20049;-72
2022/06/29 16:26:07;;;;;;;4.25;1.67;;;;;;;;;;6249339;28;20053;-72
2022/06/29 16:29:09;;;;;;;8.65;1.88;;;;;;;;;;6251775;28;20260;-73
2022/06/29 16:32:11;;;;;;;7.10;1.67;;;;;;;;;;6249604;28;20132;-72
2022/06/29 16:35:12;;;;;;;6.05;2.05;;;;;;;;;;6253922;28;20088;-73
2022/06/29 16:38:14;;;;;;;7.40;2.25;;;;;;;;;;6249769;28;20045;-72
2022/06/29 16:41:17;;;;;;;4.35;2.00;;;;;;;;;;6245716;28;20135;-71
2022/06/29 16:44:19;;;;;;;6.35;2.00;;;;;;;;;;6248668;28;20057;-72
2022/06/29 16:47:20;;;;;;;9.90;2.37;;;;;;;;;;6250662;28;20339;-72
2022/06/29 16:50:22;;;;;;;7.75;2.78;;;;;;;;;;6259074;28;20049;-71
2022/06/29 16:53:24;;;;;;;11.60;2.15;;;;;;;;;;6248728;28;20046;-72
2022/06/29 16:56:27;;;;;;;9.97;2.87;;;;;;;;;;6253623;28;20116;-72
2022/06/29 16:59:29;;;;;;;5.68;2.22;;;;;;;;;;6255792;28;20541;-72
2022/06/29 17:02:31;;;;;;;5.37;2.10;;;;;;;;;;6255824;28;20095;-73
2022/06/29 17:05:32;;;;;;;7.40;2.28;;;;;;;;;;6256142;28;20076;-73
2022/06/29 17:08:34;;;;;;;17.95;8.07;;;;;;;;;;6254398;28;20050;-72
2022/06/29 17:11:37;;;;;;;8.13;2.75;;;;;;;;;;6259569;28;20060;-72
2022/06/29 17:14:38;;;;;;;7.57;2.03;;;;;;;;;;6255078;28;20052;-72
2022/06/29 17:17:40;;;;;;;6.88;2.00;;;;;;;;;;6263583;28;20052;-74
2022/06/29 17:20:42;;;;;;;13.25;2.50;;;;;;;;;;6256053;28;20382;-72
2022/06/29 17:23:44;;;;;;;9.40;2.47;;;;;;;;;;6258891;28;20105;-72
2022/06/29 17:26:47;;;;;;;8.97;2.47;;;;;;;;;;6258522;28;20087;-72
2022/06/29 17:29:49;;;;;;;5.82;2.08;;;;;;;;;;6262444;28;20044;-75
2022/06/29 17:32:51;;;;;;;6.40;2.00;;;;;;;;;;6253626;28;20049;-73
2022/06/29 17:35:52;;;;;;;4.53;2.20;;;;;;;;;;6254231;28;20046;-71
2022/06/29 17:38:54;;;;;;;5.90;2.30;;;;;;;;;;6251103;28;20063;-72
2022/06/29 17:41:57;;;;;;;8.00;2.35;;;;;;;;;;6252776;28;20061;-73
2022/06/29 17:44:59;;;;;;;7.15;2.13;;;;;;;;;;6257423;28;20048;-73
2022/06/29 17:48:00;;;;;;;7.32;2.15;;;;;;;;;;6258514;28;20082;-71
2022/06/29 17:51:02;;;;;;;5.78;2.50;;;;;;;;;;6257826;28;20104;-71
2022/06/29 17:54:04;;;;;;;7.18;2.10;;;;;;;;;;6255352;28;20166;-71
2022/06/29 17:57:07;;;;;;;10.60;2.60;;;;;;;;;;6258982;28;20045;-72
2022/06/29 18:00:10;;;;;;;9.95;2.20;;;;;;;;;;6258205;28;20057;-71
2022/06/29 18:03:13;;;;;;;8.40;2.22;;;;;;;;;;6255651;28;20389;-72
2022/06/29 18:06:15;;;;;;;4.75;2.03;;;;;;;;;;6256556;28;20050;-74
2022/06/29 18:09:16;;;;;;;5.65;2.15;;;;;;;;;;6256954;28;20057;-72
2022/06/29 18:12:19;;;;;;;9.50;2.17;;;;;;;;;;6258957;28;20119;-71
2022/06/29 18:15:22;;;;;;;7.47;2.30;;;;;;;;;;6256760;28;20056;-73
2022/06/29 18:18:24;;;;;;;;;;;;;;;;;;6259920;28;20117;-72
2022/06/29 18:21:25;;;;;;;5.88;1.48;;;;;;;;;;6261549;28;19971;-84
2022/06/29 18:24:27;;;;;;;8.38;1.95;;;;;;;;;;6256803;28;20321;-75
2022/06/29 18:27:30;;;;;;;6.75;2.00;;;;;;;;;;6255022;28;20096;-76
2022/06/29 18:30:31;;;;;;;4.80;2.08;;;;;;;;;;6256734;28;20050;-75
2022/06/29 18:33:33;;;;;;;9.48;2.20;;;;;;;;;;6257373;28;20107;-76
2022/06/29 18:36:35;;;;;;;7.63;1.73;;;;;;;;;;6259880;28;20368;-77
2022/06/29 18:39:36;;;;;;;3.83;1.90;;;;;;;;;;6258339;28;20337;-74
2022/06/29 18:42:39;;;;;;;5.78;1.63;;;;;;;;;;6261165;28;20048;-75
2022/06/29 18:45:41;;;;;;;5.32;1.80;;;;;;;;;;6265199;28;20320;-72
2022/06/29 18:48:43;;;;;;;5.50;1.60;;;;;;;;;;6266209;28;20053;-75
2022/06/29 18:51:44;;;;;;;9.00;2.10;;;;;;;;;;6262854;28;20359;-75
2022/06/29 18:54:46;;;;;;;8.45;1.80;;;;;;;;;;6255561;28;20077;-74